createdAt,value
2018-10-02T00:01:33.793Z,3.40
2018-10-02T00:04:03.432Z,3.33
2018-10-02T00:06:32.036Z,2.73
2018-10-02T00:09:00.549Z,2.97
2018-10-02T00:11:40.043Z,3.87
2018-10-02T00:14:30.509Z,2.87
2018-10-02T00:16:59.168Z,2.80
2018-10-02T00:19:27.682Z,2.87
2018-10-02T00:22:00.857Z,3.27
2018-10-02T00:24:29.677Z,2.73
2018-10-02T00:26:58.209Z,2.60
2018-10-02T00:29:31.081Z,3.23
2018-10-02T00:32:00.731Z,3.13
2018-10-02T00:34:29.217Z,3.07
2018-10-02T00:37:00.505Z,2.27
2018-10-02T00:39:31.531Z,3.43
2018-10-02T00:42:05.089Z,2.50
2018-10-02T00:44:33.707Z,3.03
2018-10-02T00:47:04.461Z,2.83
2018-10-02T00:49:32.965Z,3.17
2018-10-02T00:52:04.847Z,3.20
2018-10-02T00:54:35.954Z,2.73
2018-10-02T00:57:06.744Z,2.40
2018-10-02T00:59:37.775Z,2.87
2018-10-02T01:02:06.560Z,2.40
2018-10-02T01:04:35.071Z,2.93
2018-10-02T01:07:05.478Z,2.93
2018-10-02T01:09:33.988Z,2.70
2018-10-02T01:12:04.545Z,2.60
2018-10-02T01:14:33.098Z,3.43
2018-10-02T01:17:02.690Z,2.57
2018-10-02T01:19:31.204Z,2.90
2018-10-02T01:21:59.682Z,3.00
2018-10-02T01:24:28.188Z,3.00
2018-10-02T01:26:56.871Z,2.70
2018-10-02T01:29:27.037Z,2.87
2018-10-02T01:31:55.606Z,2.63
2018-10-02T01:34:24.136Z,3.23
2018-10-02T01:36:52.859Z,3.03
2018-10-02T01:39:21.421Z,2.87
2018-10-02T01:41:49.912Z,2.80
2018-10-02T01:44:18.418Z,2.90
2018-10-02T01:46:46.898Z,2.80
2018-10-02T01:49:15.973Z,2.83
2018-10-02T01:51:44.470Z,2.37
2018-10-02T01:54:12.966Z,2.50
2018-10-02T01:56:41.760Z,3.00
2018-10-02T01:59:10.729Z,2.70
2018-10-02T02:01:39.349Z,2.90
2018-10-02T02:04:07.963Z,2.53
2018-10-02T02:06:36.580Z,2.67
2018-10-02T02:09:06.665Z,2.90
2018-10-02T02:11:35.423Z,2.37
2018-10-02T02:14:05.738Z,2.80
2018-10-02T02:16:34.257Z,2.83
2018-10-02T02:19:04.855Z,2.90
2018-10-02T02:21:33.361Z,2.80
2018-10-02T02:24:02.790Z,3.53
2018-10-02T02:26:31.489Z,3.07
2018-10-02T02:29:00.020Z,3.17
2018-10-02T02:31:28.908Z,2.93
2018-10-02T02:33:57.456Z,3.40
2018-10-02T02:36:25.950Z,2.87
2018-10-02T02:38:54.563Z,3.20
2018-10-02T02:41:23.068Z,3.47
2018-10-02T02:43:51.573Z,3.47
2018-10-02T02:46:20.128Z,3.40
2018-10-02T02:51:03.372Z,3.50
2018-10-02T02:53:32.157Z,3.50
2018-10-02T02:56:00.637Z,3.20
2018-10-02T02:58:29.216Z,4.03
2018-10-02T03:00:57.752Z,3.90
2018-10-02T03:03:26.648Z,2.90
2018-10-02T03:05:55.912Z,3.80
2018-10-02T03:08:24.400Z,3.67
2018-10-02T03:10:52.983Z,3.77
2018-10-02T03:13:23.052Z,3.67
2018-10-02T03:15:51.568Z,3.47
2018-10-02T03:18:20.081Z,3.40
2018-10-02T03:20:48.976Z,3.37
2018-10-02T03:23:17.833Z,2.77
2018-10-02T03:25:46.366Z,3.07
2018-10-02T03:28:14.893Z,3.00
2018-10-02T03:30:43.732Z,3.57
2018-10-02T03:33:12.251Z,3.40
2018-10-02T03:35:40.948Z,3.10
2018-10-02T03:38:09.461Z,3.10
2018-10-02T03:40:38.076Z,2.70
2018-10-02T03:43:06.637Z,3.20
2018-10-02T03:45:35.139Z,2.93
2018-10-02T03:48:05.794Z,3.20
2018-10-02T03:50:34.364Z,3.63
2018-10-02T03:53:04.528Z,2.70
2018-10-02T03:55:33.122Z,3.07
2018-10-02T03:58:02.786Z,3.03
2018-10-02T04:00:31.323Z,2.83
2018-10-02T04:02:59.897Z,2.73
2018-10-02T04:05:28.392Z,2.93
2018-10-02T04:07:56.987Z,2.73
2018-10-02T04:10:25.514Z,3.33
2018-10-02T04:12:54.095Z,2.33
2018-10-02T04:15:22.956Z,3.10
2018-10-02T04:17:51.733Z,3.00
2018-10-02T04:20:20.641Z,2.77
2018-10-02T04:22:49.182Z,2.80
2018-10-02T04:25:17.688Z,3.20
2018-10-02T04:27:46.232Z,2.97
2018-10-02T04:30:14.691Z,3.10
2018-10-02T04:32:43.155Z,3.57
2018-10-02T04:35:11.771Z,3.40
2018-10-02T04:37:40.565Z,3.40
2018-10-02T04:40:09.096Z,3.43
2018-10-02T04:42:37.555Z,4.00
2018-10-02T04:45:08.802Z,4.07
2018-10-02T04:47:38.941Z,4.03
2018-10-02T04:50:07.642Z,4.13
2018-10-02T04:52:37.077Z,4.27
2018-10-02T04:55:05.635Z,3.90
2018-10-02T04:57:34.353Z,4.33
2018-10-02T05:00:09.007Z,4.20
2018-10-02T05:02:37.571Z,5.13
2018-10-02T05:05:06.190Z,4.80
2018-10-02T05:07:34.693Z,5.27
2018-10-02T05:10:04.564Z,5.20
2018-10-02T05:12:33.037Z,5.40
2018-10-02T05:15:03.894Z,5.33
2018-10-02T05:17:32.394Z,5.63
2018-10-02T05:20:00.902Z,6.10
2018-10-02T05:22:29.429Z,5.77
2018-10-02T05:24:57.953Z,6.03
2018-10-02T05:27:26.566Z,7.03
2018-10-02T05:29:54.984Z,7.20
2018-10-02T05:32:23.469Z,6.73
2018-10-02T05:34:52.300Z,7.30
2018-10-02T05:37:20.935Z,7.63
2018-10-02T05:39:49.434Z,8.00
2018-10-02T05:42:17.965Z,8.27
2018-10-02T05:44:46.428Z,8.60
2018-10-02T05:47:14.945Z,9.00
2018-10-02T05:49:43.478Z,8.30
2018-10-02T05:52:11.989Z,8.80
2018-10-02T05:54:40.796Z,8.90
2018-10-02T05:57:09.354Z,9.60
2018-10-02T05:59:37.863Z,8.73
2018-10-02T06:02:06.870Z,10.00
2018-10-02T06:04:35.378Z,8.63
2018-10-02T06:07:06.194Z,9.77
2018-10-02T06:09:34.694Z,9.67
2018-10-02T06:12:04.465Z,9.23
2018-10-02T06:14:33.421Z,10.03
2018-10-02T06:17:03.217Z,9.97
2018-10-02T06:19:32.269Z,10.67
2018-10-02T06:22:00.751Z,11.37
2018-10-02T06:24:29.289Z,11.40
2018-10-02T06:26:57.822Z,11.30
2018-10-02T06:29:26.348Z,11.23
2018-10-02T06:31:54.867Z,10.50
2018-10-02T06:34:23.807Z,9.77
2018-10-02T06:36:56.826Z,10.37
2018-10-02T06:39:26.512Z,10.67
2018-10-02T06:41:55.101Z,10.50
2018-10-02T06:44:23.661Z,10.77
2018-10-02T06:46:52.207Z,11.00
2018-10-02T06:49:20.685Z,10.73
2018-10-02T06:51:49.298Z,10.93
2018-10-02T06:54:17.769Z,10.70
2018-10-02T06:56:46.305Z,11.00
2018-10-02T06:59:14.814Z,11.27
2018-10-02T07:01:43.333Z,11.53
2018-10-02T07:04:11.936Z,11.40
2018-10-02T07:06:40.499Z,10.90
2018-10-02T07:09:10.581Z,12.07
2018-10-02T07:11:40.172Z,11.77
2018-10-02T07:14:09.360Z,12.27
2018-10-02T07:16:37.956Z,11.67
2018-10-02T07:19:07.014Z,12.13
2018-10-02T07:21:36.140Z,12.27
2018-10-02T07:24:06.052Z,11.07
2018-10-02T07:26:34.696Z,11.00
2018-10-02T07:29:04.701Z,10.47
2018-10-02T07:31:33.222Z,10.93
2018-10-02T07:34:03.318Z,11.37
2018-10-02T07:36:31.848Z,10.43
2018-10-02T07:39:00.431Z,10.63
2018-10-02T07:41:28.891Z,10.30
2018-10-02T07:43:57.425Z,9.10
2018-10-02T07:46:26.033Z,9.40
2018-10-02T07:48:54.650Z,8.60
2018-10-02T07:51:23.218Z,8.87
2018-10-02T07:53:51.838Z,8.77
2018-10-02T07:56:20.387Z,9.30
2018-10-02T07:58:48.865Z,9.27
2018-10-02T08:01:17.429Z,9.17
2018-10-02T08:03:45.988Z,8.47
2018-10-02T08:06:14.476Z,8.83
2018-10-02T08:08:43.021Z,8.70
2018-10-02T08:11:11.570Z,8.87
2018-10-02T08:13:40.171Z,8.77
2018-10-02T08:16:09.166Z,8.53
2018-10-02T08:18:37.688Z,8.83
2018-10-02T08:21:06.194Z,8.43
2018-10-02T08:23:34.782Z,7.40
2018-10-02T08:26:04.959Z,9.47
2018-10-02T08:28:33.635Z,8.27
2018-10-02T08:31:03.851Z,8.87
2018-10-02T08:33:32.431Z,8.93
2018-10-02T08:36:02.885Z,9.10
2018-10-02T08:38:31.305Z,8.63
2018-10-02T08:40:59.785Z,8.60
2018-10-02T08:43:28.412Z,8.97
2018-10-02T08:45:56.865Z,7.77
2018-10-02T08:48:25.567Z,8.50
2018-10-02T08:50:54.286Z,8.07
2018-10-02T08:53:22.763Z,8.00
2018-10-02T08:55:51.280Z,8.53
2018-10-02T08:58:19.832Z,7.83
2018-10-02T09:00:48.938Z,8.40
2018-10-02T09:03:17.430Z,8.17
2018-10-02T09:05:46.000Z,8.63
2018-10-02T09:08:14.739Z,7.97
2018-10-02T09:10:43.288Z,7.70
2018-10-02T09:13:11.807Z,7.63
2018-10-02T09:15:40.468Z,8.17
2018-10-02T09:18:08.980Z,8.90
2018-10-02T09:20:37.639Z,8.03
2018-10-02T09:23:06.294Z,7.50
2018-10-02T09:25:34.991Z,8.57
2018-10-02T09:28:08.652Z,8.40
2018-10-02T09:30:42.279Z,7.70
2018-10-02T09:33:15.943Z,8.50
2018-10-02T09:35:49.695Z,8.90
2018-10-02T09:38:23.485Z,8.93
2018-10-02T09:40:57.221Z,8.30
2018-10-02T09:43:30.702Z,7.80
2018-10-02T09:46:00.041Z,8.27
2018-10-02T09:48:28.544Z,8.07
2018-10-02T09:50:58.367Z,7.57
2018-10-02T09:53:26.898Z,7.63
2018-10-02T09:55:55.443Z,7.50
2018-10-02T09:58:24.000Z,7.73
2018-10-02T10:00:57.908Z,7.90
2018-10-02T10:03:26.392Z,7.97
2018-10-02T10:05:54.919Z,7.83
2018-10-02T10:08:24.851Z,7.93
2018-10-02T10:10:53.328Z,8.17
2018-10-02T10:13:22.168Z,8.17
2018-10-02T10:15:50.699Z,8.00
2018-10-02T10:18:19.876Z,8.00
2018-10-02T10:20:48.442Z,8.27
2018-10-02T10:23:17.183Z,8.53
2018-10-02T10:25:45.742Z,8.60
2018-10-02T10:28:14.377Z,8.30
2018-10-02T10:30:42.948Z,8.53
2018-10-02T10:33:11.578Z,8.87
2018-10-02T10:35:40.082Z,9.50
2018-10-02T10:38:08.996Z,8.70
2018-10-02T10:40:37.907Z,8.80
2018-10-02T10:43:06.421Z,9.90
2018-10-02T10:45:34.969Z,9.07
2018-10-02T10:48:05.206Z,8.13
2018-10-02T10:50:33.724Z,8.43
2018-10-02T10:53:04.131Z,8.03
2018-10-02T10:55:35.702Z,8.77
2018-10-02T10:58:05.729Z,9.43
2018-10-02T11:00:36.773Z,9.23
2018-10-02T11:03:06.232Z,9.90
2018-10-02T11:05:34.741Z,10.20
2018-10-02T11:08:04.987Z,9.70
2018-10-02T11:10:33.514Z,9.50
2018-10-02T11:13:04.294Z,8.60
2018-10-02T11:15:34.095Z,9.33
2018-10-02T11:18:07.562Z,9.97
2018-10-02T11:20:37.593Z,9.50
2018-10-02T11:23:06.082Z,9.33
2018-10-02T11:25:34.655Z,10.40
2018-10-02T11:28:04.787Z,10.70
2018-10-02T11:30:33.325Z,9.63
2018-10-02T11:33:03.611Z,10.17
2018-10-02T11:35:32.233Z,10.37
2018-10-02T11:38:00.658Z,10.47
2018-10-02T11:40:29.210Z,10.60
2018-10-02T11:42:57.737Z,11.03
2018-10-02T11:45:26.266Z,11.00
2018-10-02T11:47:54.761Z,11.40
2018-10-02T11:50:23.371Z,10.37
2018-10-02T11:52:52.669Z,11.50
2018-10-02T11:55:21.241Z,10.83
2018-10-02T11:57:49.743Z,10.80
2018-10-02T12:00:18.320Z,11.20
2018-10-02T12:02:46.844Z,12.23
2018-10-02T12:05:15.441Z,11.83
2018-10-02T12:07:43.942Z,11.50
2018-10-02T12:10:12.509Z,11.03
2018-10-02T12:12:41.051Z,10.13
2018-10-02T12:15:09.672Z,11.00
2018-10-02T12:17:38.192Z,11.10
2018-10-02T12:20:06.754Z,10.53
2018-10-02T12:22:35.306Z,9.30
2018-10-02T12:25:06.053Z,9.17
2018-10-02T12:27:34.724Z,9.53
2018-10-02T12:30:04.909Z,10.37
2018-10-02T12:32:33.580Z,9.10
2018-10-02T12:35:04.009Z,8.73
2018-10-02T12:37:32.647Z,8.27
2018-10-02T12:40:03.216Z,7.73
2018-10-02T12:42:31.861Z,7.97
2018-10-02T12:45:00.539Z,8.00
2018-10-02T12:47:29.057Z,8.13
2018-10-02T12:49:57.558Z,8.40
2018-10-02T12:52:26.241Z,8.63
2018-10-02T12:54:55.315Z,9.13
2018-10-02T12:57:23.811Z,8.90
2018-10-02T12:59:52.333Z,8.80
2018-10-02T13:02:20.839Z,8.40
2018-10-02T13:04:49.362Z,8.07
2018-10-02T13:07:18.142Z,9.67
2018-10-02T13:09:47.014Z,9.17
2018-10-02T13:12:15.514Z,8.50
2018-10-02T13:14:44.011Z,8.40
2018-10-02T13:17:12.649Z,8.20
2018-10-02T13:19:41.254Z,8.30
2018-10-02T13:22:09.900Z,7.20
2018-10-02T13:24:38.445Z,7.00
2018-10-02T13:27:06.976Z,6.47
2018-10-02T13:29:35.502Z,7.47
2018-10-02T13:32:05.171Z,7.20
2018-10-02T13:34:33.714Z,6.83
2018-10-02T13:37:04.062Z,6.87
2018-10-02T13:39:32.788Z,6.43
2018-10-02T13:42:02.780Z,6.57
2018-10-02T13:44:31.453Z,6.03
2018-10-02T13:47:00.162Z,6.30
2018-10-02T13:49:28.666Z,5.47
2018-10-02T13:51:57.396Z,4.40
2018-10-02T13:54:26.025Z,4.90
2018-10-02T13:56:54.728Z,4.77
2018-10-02T13:59:23.621Z,4.90
2018-10-02T14:01:52.313Z,4.43
2018-10-02T14:04:20.817Z,4.30
2018-10-02T14:06:49.353Z,3.90
2018-10-02T14:09:17.926Z,3.27
2018-10-02T14:11:46.440Z,3.50
2018-10-02T14:14:15.414Z,3.20
2018-10-02T14:16:43.918Z,2.77
2018-10-02T14:19:12.422Z,3.20
2018-10-02T14:21:41.291Z,3.53
2018-10-02T14:24:09.762Z,3.50
2018-10-02T14:26:38.291Z,2.70
2018-10-02T14:29:07.008Z,3.13
2018-10-02T14:31:35.522Z,3.03
2018-10-02T14:34:05.649Z,2.57
2018-10-02T14:36:34.191Z,2.70
2018-10-02T14:39:06.065Z,2.70
2018-10-02T14:41:34.547Z,2.53
2018-10-02T14:44:05.788Z,2.70
2018-10-02T14:46:34.316Z,2.27
2018-10-02T14:49:04.584Z,3.13
2018-10-02T14:51:33.194Z,2.73
2018-10-02T14:54:03.190Z,2.90
2018-10-02T14:56:31.793Z,3.03
2018-10-02T14:59:00.335Z,2.37
2018-10-02T15:01:28.878Z,2.73
2018-10-02T15:03:57.428Z,2.40
2018-10-02T15:06:25.980Z,3.30
2018-10-02T15:08:54.477Z,2.10
2018-10-02T15:11:22.994Z,2.93
2018-10-02T15:13:51.889Z,2.40
2018-10-02T15:16:20.411Z,2.40
2018-10-02T15:18:49.293Z,2.53
2018-10-02T15:21:17.800Z,2.90
2018-10-02T15:23:46.730Z,2.57
2018-10-02T15:26:15.418Z,2.73
2018-10-02T15:28:43.945Z,2.77
2018-10-02T15:31:12.553Z,2.80
2018-10-02T15:33:41.065Z,2.73
2018-10-02T15:36:09.589Z,3.17
2018-10-02T15:38:38.073Z,3.17
2018-10-02T15:41:06.601Z,3.50
2018-10-02T15:43:35.105Z,2.80
2018-10-02T15:46:05.754Z,2.97
2018-10-02T15:48:34.319Z,2.80
2018-10-02T15:51:04.927Z,2.90
2018-10-02T15:53:33.878Z,3.03
2018-10-02T15:56:03.752Z,2.90
2018-10-02T15:58:32.259Z,2.80
2018-10-02T16:01:00.832Z,3.20
2018-10-02T16:03:29.366Z,2.77
2018-10-02T16:05:57.892Z,3.13
2018-10-02T16:08:26.782Z,3.03
2018-10-02T16:10:55.295Z,2.50
2018-10-02T16:13:23.814Z,3.10
2018-10-02T16:15:52.395Z,2.97
2018-10-02T16:18:21.472Z,3.03
2018-10-02T16:20:50.000Z,3.20
2018-10-02T16:23:18.554Z,3.30
2018-10-02T16:25:47.110Z,3.20
2018-10-02T16:28:15.643Z,3.63
2018-10-02T16:30:44.798Z,2.90
2018-10-02T16:33:13.293Z,3.23
2018-10-02T16:35:41.798Z,2.87
2018-10-02T16:38:10.368Z,3.17
2018-10-02T16:40:38.932Z,3.50
2018-10-02T16:43:07.569Z,3.50
2018-10-02T16:45:36.258Z,2.60
2018-10-02T16:48:04.840Z,3.50
2018-10-02T16:50:33.521Z,2.80
2018-10-02T16:53:05.492Z,3.70
2018-10-02T16:55:34.233Z,3.40
2018-10-02T16:58:06.414Z,3.33
2018-10-02T17:00:34.968Z,2.97
2018-10-02T17:03:05.935Z,3.40
2018-10-02T17:05:34.849Z,3.50
2018-10-02T17:08:04.992Z,3.10
2018-10-02T17:10:33.526Z,3.30
2018-10-02T17:13:05.270Z,3.40
2018-10-02T17:15:33.961Z,3.47
2018-10-02T17:18:04.025Z,3.40
2018-10-02T17:20:33.309Z,3.63
2018-10-02T17:23:02.918Z,3.30
2018-10-02T17:25:31.582Z,3.30
2018-10-02T17:28:00.123Z,3.43
2018-10-02T17:30:28.725Z,3.77
2018-10-02T17:32:57.562Z,3.53
2018-10-02T17:35:26.143Z,2.97
2018-10-02T17:37:54.674Z,2.87
2018-10-02T17:40:23.395Z,2.63
2018-10-02T17:42:51.893Z,3.10
2018-10-02T17:45:21.502Z,3.30
2018-10-02T17:47:50.038Z,3.53
2018-10-02T17:50:18.631Z,3.80
2018-10-02T17:52:47.732Z,3.17
2018-10-02T17:55:16.294Z,3.40
2018-10-02T17:57:45.079Z,3.50
2018-10-02T18:00:13.639Z,3.43
2018-10-02T18:02:42.581Z,3.83
2018-10-02T18:05:11.106Z,3.20
2018-10-02T18:07:39.671Z,3.57
2018-10-02T18:10:08.295Z,3.20
2018-10-02T18:12:36.824Z,3.23
2018-10-02T18:15:05.617Z,3.87
2018-10-02T18:17:34.136Z,3.50
2018-10-02T18:20:04.683Z,3.10
2018-10-02T18:22:38.847Z,3.60
2018-10-02T18:25:07.599Z,3.87
2018-10-02T18:27:37.831Z,2.90
2018-10-02T18:30:07.795Z,3.80
2018-10-02T18:32:37.938Z,3.63
2018-10-02T18:35:06.645Z,3.33
2018-10-02T18:37:35.191Z,3.90
2018-10-02T18:40:05.439Z,3.27
2018-10-02T18:42:34.009Z,3.70
2018-10-02T18:45:06.824Z,3.47
2018-10-02T18:47:35.361Z,3.33
2018-10-02T18:50:06.267Z,3.60
2018-10-02T18:52:34.840Z,3.30
2018-10-02T18:55:04.873Z,4.30
2018-10-02T18:57:33.489Z,3.67
2018-10-02T19:00:05.735Z,3.27
2018-10-02T19:02:34.397Z,3.13
2018-10-02T19:05:04.668Z,3.53
2018-10-02T19:07:33.243Z,3.33
2018-10-02T19:10:03.245Z,3.90
2018-10-02T19:12:31.770Z,3.97
2018-10-02T19:15:00.322Z,3.83
2018-10-02T19:17:28.975Z,4.57
2018-10-02T19:20:02.771Z,4.47
2018-10-02T19:22:31.420Z,4.10
2018-10-02T19:25:05.450Z,4.07
2018-10-02T19:27:34.154Z,4.00
2018-10-02T19:30:08.870Z,4.20
2018-10-02T19:32:37.466Z,4.10
2018-10-02T19:35:07.105Z,4.23
2018-10-02T19:37:40.878Z,4.53
2018-10-02T19:40:09.692Z,4.53
2018-10-02T19:42:38.277Z,4.03
2018-10-02T19:45:12.233Z,4.10
2018-10-02T19:47:40.878Z,5.17
2018-10-02T19:50:09.550Z,4.57
2018-10-02T19:52:38.095Z,3.63
2018-10-02T19:55:06.648Z,4.37
2018-10-02T19:57:35.274Z,4.67
2018-10-02T20:00:05.411Z,4.83
2018-10-02T20:02:34.027Z,4.20
2018-10-02T20:05:03.716Z,5.10
2018-10-02T20:07:32.386Z,4.40
2018-10-02T20:10:00.867Z,4.87
2018-10-02T20:12:29.477Z,4.87
2018-10-02T20:14:58.070Z,3.93
2018-10-02T20:17:26.619Z,4.20
2018-10-02T20:19:55.746Z,4.07
2018-10-02T20:22:24.258Z,5.10
2018-10-02T20:24:52.836Z,3.80
2018-10-02T20:27:21.791Z,5.00
2018-10-02T20:29:50.353Z,5.13
2018-10-02T20:32:18.983Z,4.60
2018-10-02T20:34:47.842Z,4.63
2018-10-02T20:37:16.416Z,4.27
2018-10-02T20:39:44.994Z,4.37
2018-10-02T20:42:13.549Z,5.27
2018-10-02T20:44:43.058Z,4.20
2018-10-02T20:47:11.608Z,4.43
2018-10-02T20:49:40.386Z,4.77
2018-10-02T20:52:08.956Z,5.23
2018-10-02T20:54:37.504Z,4.27
2018-10-02T20:57:05.993Z,4.93
2018-10-02T20:59:34.552Z,4.30
2018-10-02T21:02:05.204Z,5.37
2018-10-02T21:04:33.723Z,4.63
2018-10-02T21:07:03.351Z,5.20
2018-10-02T21:09:31.927Z,4.13
2018-10-02T21:12:00.458Z,4.73
2018-10-02T21:14:29.033Z,4.73
2018-10-02T21:16:57.510Z,5.23
2018-10-02T21:19:26.020Z,4.43
2018-10-02T21:21:54.614Z,5.43
2018-10-02T21:24:23.112Z,5.13
2018-10-02T21:26:51.607Z,4.43
2018-10-02T21:29:20.132Z,4.37
2018-10-02T21:31:50.690Z,4.30
2018-10-02T21:34:19.272Z,5.77
2018-10-02T21:36:47.796Z,5.33
2018-10-02T21:39:16.334Z,4.43
2018-10-02T21:41:44.870Z,4.30
2018-10-02T21:44:13.427Z,4.43
2018-10-02T21:46:41.938Z,5.67
2018-10-02T21:49:10.531Z,4.63
2018-10-02T21:51:39.077Z,4.70
2018-10-02T21:54:07.590Z,4.40
2018-10-02T21:56:36.129Z,4.40
2018-10-02T21:59:05.099Z,5.23
2018-10-02T22:01:33.633Z,4.63
2018-10-02T22:04:03.655Z,4.97
2018-10-02T22:06:32.183Z,5.13
2018-10-02T22:09:00.691Z,4.53
2018-10-02T22:11:29.252Z,4.77
2018-10-02T22:13:57.896Z,5.57
2018-10-02T22:16:26.416Z,5.03
2018-10-02T22:18:54.896Z,5.07
2018-10-02T22:21:23.785Z,5.20
2018-10-02T22:23:52.270Z,4.53
2018-10-02T22:26:20.817Z,4.60
2018-10-02T22:28:49.413Z,4.53
2018-10-02T22:31:17.979Z,5.17
2018-10-02T22:33:46.778Z,4.73
2018-10-02T22:36:15.280Z,4.37
2018-10-02T22:38:43.809Z,4.17
2018-10-02T22:41:12.331Z,4.63
2018-10-02T22:43:40.848Z,4.23
2018-10-02T22:46:09.810Z,4.93
2018-10-02T22:48:38.325Z,4.87
2018-10-02T22:51:06.935Z,4.80
2018-10-02T22:53:35.559Z,5.00
2018-10-02T22:56:05.242Z,4.80
2018-10-02T22:58:33.752Z,5.13
2018-10-02T23:01:03.753Z,5.40
2018-10-02T23:03:32.240Z,4.53
2018-10-02T23:06:03.199Z,4.53
2018-10-02T23:08:31.698Z,4.73
2018-10-02T23:11:00.216Z,4.83
2018-10-02T23:13:29.001Z,4.60
2018-10-02T23:15:57.479Z,4.80
2018-10-02T23:18:26.105Z,5.50
2018-10-02T23:20:54.669Z,5.00
2018-10-02T23:23:23.205Z,4.60
2018-10-02T23:25:51.725Z,4.73
2018-10-02T23:28:20.344Z,5.37
2018-10-02T23:30:49.576Z,5.10
2018-10-02T23:33:18.091Z,4.37
2018-10-02T23:35:47.007Z,4.63
2018-10-02T23:38:15.593Z,4.57
2018-10-02T23:40:44.120Z,5.17
2018-10-02T23:43:12.641Z,5.23
2018-10-02T23:45:41.341Z,4.57
2018-10-02T23:48:09.854Z,5.23
2018-10-02T23:50:38.390Z,4.87
2018-10-02T23:53:06.945Z,5.00
2018-10-02T23:55:35.441Z,4.87
2018-10-02T23:58:05.078Z,5.30
